Time;durP1;ratioP1;P1;durP2;ratioP2;P2;SDS_P1;SDS_P2;PMS_P1;PMS_P2;Temp;Humidity;BMP_temperature;BMP_pressure;BME280_temperature;BME280_humidity;BME280_pressure;Samples;Min_cycle;Max_cycle;Signal;HPM_P1;HPM_P2
2022/09/12 00:02:27;;;;;;;13.90;12.45;;;16.60;99.90;;;;;;5030770;28;20116;-55
2022/09/12 00:05:13;;;;;;;15.63;12.20;;;16.60;99.90;;;;;;5031850;28;20088;-57
2022/09/12 00:07:59;;;;;;;13.35;11.80;;;16.60;99.90;;;;;;5045868;28;20022;-59
2022/09/12 00:10:45;;;;;;;16.38;14.02;;;16.60;99.90;;;;;;5017767;28;20037;-56
2022/09/12 00:13:31;;;;;;;20.08;15.52;;;16.60;99.90;;;;;;5011388;28;20033;-59
2022/09/12 00:16:23;;;;;;;16.10;13.05;;;16.60;99.90;;;;;;5026181;28;20033;-59
2022/09/12 00:19:10;;;;;;;13.50;12.07;;;16.50;99.90;;;;;;5037476;28;20052;-58
2022/09/12 00:21:56;;;;;;;15.77;13.05;;;16.40;99.90;;;;;;5021705;28;20030;-57
2022/09/12 00:24:42;;;;;;;12.85;11.07;;;16.40;99.90;;;;;;5036489;28;20101;-58
2022/09/12 00:27:28;;;;;;;14.18;12.68;;;16.40;99.90;;;;;;5036728;28;20093;-54
2022/09/12 00:30:14;;;;;;;27.05;19.98;;;16.40;99.90;;;;;;5036308;28;20037;-57
2022/09/12 00:33:00;;;;;;;23.23;17.25;;;16.40;99.90;;;;;;5037406;28;20029;-56
2022/09/12 00:35:49;;;;;;;15.65;13.48;;;16.30;99.90;;;;;;5021629;28;20556;-56
2022/09/12 00:38:37;;;;;;;17.88;14.07;;;16.30;99.90;;;;;;5035477;28;20048;-57
2022/09/12 00:41:36;;;;;;;15.52;13.00;;;16.40;99.90;;;;;;5035610;28;20025;-57
2022/09/12 00:44:22;;;;;;;13.55;12.15;;;16.40;99.90;;;;;;5036556;28;20025;-62
2022/09/12 00:47:29;;;;;;;16.35;12.70;;;16.40;99.90;;;;;;5036074;28;20112;-58
2022/09/12 00:50:16;;;;;;;17.17;12.80;;;16.50;99.90;;;;;;5028275;28;20026;-57
2022/09/12 00:53:06;;;;;;;14.60;11.90;;;16.50;99.90;;;;;;5029110;28;20061;-57
2022/09/12 00:55:54;;;;;;;15.57;12.80;;;16.50;99.90;;;;;;5015959;28;20030;-59
2022/09/12 00:58:47;;;;;;;13.15;11.35;;;16.50;99.90;;;;;;5031742;28;20045;-55
2022/09/12 01:01:34;;;;;;;15.15;11.60;;;16.50;99.90;;;;;;5036372;28;20087;-58
2022/09/12 01:04:24;;;;;;;13.90;12.48;;;16.60;99.90;;;;;;5016821;28;20034;-54
2022/09/12 01:07:11;;;;;;;13.73;12.23;;;16.50;99.90;;;;;;5018908;28;20069;-59
2022/09/12 01:09:57;;;;;;;13.95;11.70;;;16.40;99.90;;;;;;5022177;28;20033;-59
2022/09/12 01:12:43;;;;;;;13.18;11.73;;;16.40;99.90;;;;;;5035102;28;20084;-59
2022/09/12 01:15:29;;;;;;;15.25;12.75;;;16.30;99.90;;;;;;5014349;28;20026;-58
2022/09/12 01:18:58;;;;;;;15.68;12.48;;;16.30;99.90;;;;;;5009948;28;20520;-59
2022/09/12 01:22:02;;;;;;;14.98;11.88;;;16.30;99.90;;;;;;5029205;28;20132;-58
2022/09/12 01:25:11;;;;;;;12.50;11.20;;;16.20;99.90;;;;;;5013353;28;20060;-58
2022/09/12 01:28:35;;;;;;;16.17;10.80;;;16.30;99.90;;;;;;5022362;28;20037;-57
2022/09/12 01:31:28;;;;;;;13.00;11.38;;;16.30;99.90;;;;;;5031954;28;20045;-59
2022/09/12 01:34:26;;;;;;;13.75;11.40;;;16.30;99.90;;;;;;5032167;28;20032;-56
2022/09/12 01:37:24;;;;;;;18.70;15.35;;;16.30;99.90;;;;;;5033285;28;20053;-55
2022/09/12 01:40:24;;;;;;;18.45;15.82;;;16.30;99.90;;;;;;5012153;28;20164;-57
2022/09/12 01:43:23;;;;;;;18.35;15.10;;;16.20;99.90;;;;;;5018276;28;20033;-56
2022/09/12 01:46:43;;;;;;;18.23;15.48;;;16.30;99.90;;;;;;5012346;28;20113;-59
2022/09/12 01:49:36;;;;;;;15.57;12.90;;;16.30;99.90;;;;;;5025270;28;20497;-56
2022/09/12 01:52:33;;;;;;;18.45;13.85;;;16.20;99.90;;;;;;5031898;28;20033;-57
2022/09/12 01:55:34;;;;;;;17.58;12.85;;;16.20;99.90;;;;;;5013970;28;20029;-58
2022/09/12 01:58:22;;;;;;;20.05;14.25;;;16.10;99.90;;;;;;5031550;28;20612;-54
2022/09/12 02:01:15;;;;;;;20.35;18.02;;;16.10;99.90;;;;;;5031032;28;20029;-59
2022/09/12 02:04:21;;;;;;;21.45;16.92;;;16.10;99.90;;;;;;5031491;28;20032;-59
2022/09/12 02:07:15;;;;;;;19.23;16.20;;;16.10;99.90;;;;;;5030906;28;20083;-57
2022/09/12 02:10:20;;;;;;;15.60;13.93;;;16.10;99.90;;;;;;5018214;28;20032;-57
2022/09/12 02:13:20;;;;;;;18.80;13.45;;;16.10;99.90;;;;;;5013735;28;20117;-56
2022/09/12 02:16:10;;;;;;;17.88;12.98;;;16.00;99.90;;;;;;5031119;28;20030;-58
2022/09/12 02:19:02;;;;;;;15.75;12.55;;;16.00;99.90;;;;;;5019641;28;20026;-59
2022/09/12 02:22:00;;;;;;;14.23;11.93;;;16.10;99.90;;;;;;5031809;28;20036;-56
2022/09/12 02:24:51;;;;;;;19.85;16.92;;;16.00;99.90;;;;;;5031123;28;20056;-56
2022/09/12 02:27:43;;;;;;;17.90;14.13;;;16.00;99.90;;;;;;5011476;28;20083;-56
2022/09/12 02:30:43;;;;;;;15.25;13.23;;;16.00;99.90;;;;;;5021342;28;20112;-57
2022/09/12 02:33:43;;;;;;;14.88;12.63;;;16.00;99.90;;;;;;5032244;28;20070;-59
2022/09/12 02:36:51;;;;;;;15.63;12.90;;;16.00;99.90;;;;;;5031670;28;20072;-56
2022/09/12 02:39:37;;;;;;;13.25;11.85;;;16.00;99.90;;;;;;5030281;28;20076;-57
2022/09/12 02:42:23;;;;;;;15.13;13.32;;;16.00;99.90;;;;;;5030628;28;20037;-54
2022/09/12 02:45:11;;;;;;;13.23;11.50;;;16.00;99.90;;;;;;5030959;28;20051;-54
2022/09/12 02:48:07;;;;;;;16.73;13.10;;;16.10;99.90;;;;;;5030647;28;20034;-56
2022/09/12 02:50:54;;;;;;;14.93;12.23;;;16.00;99.90;;;;;;5033708;28;20492;-56
2022/09/12 02:53:41;;;;;;;18.83;12.20;;;16.00;99.90;;;;;;5031416;28;20413;-53
2022/09/12 02:56:28;;;;;;;13.32;11.07;;;16.00;99.90;;;;;;5030580;28;20061;-57
2022/09/12 02:59:18;;;;;;;13.05;11.65;;;16.00;99.90;;;;;;5031071;28;20036;-58
2022/09/12 03:02:27;;;;;;;14.30;12.05;;;15.90;99.90;;;;;;5030278;28;20120;-56
2022/09/12 03:05:38;;;;;;;14.88;11.85;;;15.90;99.90;;;;;;5031696;28;20096;-56
2022/09/12 03:08:27;;;;;;;13.45;11.23;;;15.90;99.90;;;;;;5030881;28;20493;-58
2022/09/12 03:11:33;;;;;;;14.48;12.70;;;15.90;99.90;;;;;;5011087;28;20376;-57
2022/09/12 03:14:47;;;;;;;14.68;12.73;;;15.80;99.90;;;;;;5022720;28;20433;-59
2022/09/12 03:18:00;;;;;;;14.80;11.90;;;15.70;99.90;;;;;;5031832;28;20418;-58
2022/09/12 03:20:57;;;;;;;13.65;11.80;;;15.60;99.90;;;;;;5011797;28;20038;-59
2022/09/12 03:23:54;;;;;;;15.45;11.57;;;15.50;99.90;;;;;;5015369;28;20017;-57
2022/09/12 03:26:54;;;;;;;13.25;11.85;;;15.60;99.90;;;;;;5030961;28;20151;-55
2022/09/12 03:29:42;;;;;;;14.50;12.00;;;15.60;99.90;;;;;;5030735;28;20025;-55
2022/09/12 03:32:43;;;;;;;14.18;10.70;;;15.60;99.90;;;;;;5015845;28;20083;-58
2022/09/12 03:35:29;;;;;;;14.32;12.82;;;15.60;99.90;;;;;;4999628;28;20126;-57
2022/09/12 03:38:16;;;;;;;16.42;14.05;;;15.60;99.90;;;;;;5010007;28;20045;-55
2022/09/12 03:41:02;;;;;;;15.68;13.15;;;15.60;99.90;;;;;;5030656;28;20405;-55
2022/09/12 03:43:48;;;;;;;16.25;14.00;;;15.50;99.90;;;;;;5022412;28;20079;-58
2022/09/12 03:46:34;;;;;;;16.42;13.52;;;15.40;99.90;;;;;;5012857;28;20512;-57
2022/09/12 03:49:20;;;;;;;18.55;15.55;;;15.30;99.90;;;;;;5024395;28;20079;-58
2022/09/12 03:52:06;;;;;;;19.58;15.70;;;15.20;99.90;;;;;;5030692;28;20417;-57
2022/09/12 03:54:52;;;;;;;20.20;16.25;;;15.10;99.90;;;;;;5016317;28;20037;-56
2022/09/12 03:57:39;;;;;;;17.55;15.15;;;15.10;99.90;;;;;;5016612;28;20461;-58
2022/09/12 04:00:25;;;;;;;22.10;16.38;;;15.10;99.90;;;;;;5030186;28;20529;-59
2022/09/12 04:03:11;;;;;;;18.50;15.07;;;15.20;99.90;;;;;;5029901;28;20051;-56
2022/09/12 04:05:57;;;;;;;23.48;15.13;;;15.20;99.90;;;;;;5029736;28;20037;-56
2022/09/12 04:08:46;;;;;;;16.88;13.63;;;15.30;99.90;;;;;;5017061;28;20109;-57
2022/09/12 04:11:32;;;;;;;18.48;14.48;;;15.40;99.90;;;;;;5015011;28;20494;-57
2022/09/12 04:14:18;;;;;;;21.40;16.15;;;15.30;99.90;;;;;;5029568;28;20060;-57
2022/09/12 04:17:04;;;;;;;19.80;16.83;;;15.30;99.90;;;;;;5029756;28;20486;-58
2022/09/12 04:19:50;;;;;;;18.23;15.93;;;15.20;99.90;;;;;;5015986;28;20061;-56
2022/09/12 04:22:36;;;;;;;18.52;16.00;;;15.10;99.90;;;;;;5028738;28;20064;-60
2022/09/12 04:25:22;;;;;;;17.42;14.88;;;14.90;99.90;;;;;;4995866;28;20081;-59
2022/09/12 04:28:08;;;;;;;17.98;14.82;;;14.90;99.90;;;;;;5013631;28;20087;-58
2022/09/12 04:30:55;;;;;;;18.30;15.20;;;14.80;99.90;;;;;;5027884;28;20034;-59
2022/09/12 04:33:41;;;;;;;19.92;16.00;;;14.80;99.90;;;;;;5029466;28;20037;-58
2022/09/12 04:36:28;;;;;;;20.98;17.25;;;14.80;99.90;;;;;;5028752;28;20501;-56
2022/09/12 04:39:15;;;;;;;24.38;20.52;;;14.70;99.90;;;;;;5030899;28;20037;-58
2022/09/12 04:42:03;;;;;;;22.60;19.10;;;14.60;99.90;;;;;;5016712;28;20033;-56
2022/09/12 04:44:49;;;;;;;27.98;19.75;;;14.70;99.90;;;;;;5032330;28;20033;-58
2022/09/12 04:47:35;;;;;;;20.13;17.25;;;14.70;99.90;;;;;;5036775;28;20021;-58
2022/09/12 04:50:21;;;;;;;24.00;19.48;;;14.70;99.90;;;;;;5030255;28;20167;-56
2022/09/12 04:53:07;;;;;;;23.38;18.13;;;14.70;99.90;;;;;;5032526;28;20088;-59
2022/09/12 04:55:53;;;;;;;22.92;19.05;;;14.70;99.90;;;;;;5034112;28;20118;-58
2022/09/12 04:58:39;;;;;;;23.88;18.88;;;14.70;99.90;;;;;;5032919;28;20029;-57
2022/09/12 05:01:27;;;;;;;24.50;18.65;;;14.50;99.90;;;;;;5021182;28;20116;-57
2022/09/12 05:04:14;;;;;;;22.88;18.77;;;14.50;99.90;;;;;;5009139;28;20025;-58
2022/09/12 05:07:00;;;;;;;24.75;19.80;;;14.50;99.90;;;;;;5037409;28;20552;-58
2022/09/12 05:09:46;;;;;;;25.13;19.23;;;14.50;99.90;;;;;;5016605;28;20026;-56
2022/09/12 05:12:32;;;;;;;26.38;18.60;;;14.40;99.90;;;;;;5013177;28;20429;-59
2022/09/12 05:15:18;;;;;;;22.75;18.52;;;14.40;99.90;;;;;;5025919;28;20034;-58
2022/09/12 05:18:05;;;;;;;24.70;19.27;;;14.50;99.90;;;;;;5032792;28;20084;-58
2022/09/12 05:20:52;;;;;;;24.17;19.33;;;14.50;99.90;;;;;;5014517;28;20042;-59
2022/09/12 05:23:39;;;;;;;23.73;19.42;;;14.50;99.90;;;;;;5031469;28;20044;-59
2022/09/12 05:26:25;;;;;;;25.88;20.30;;;14.50;99.90;;;;;;5032564;28;20062;-60
2022/09/12 05:29:12;;;;;;;30.70;20.63;;;14.50;99.90;;;;;;5032650;28;20033;-60
2022/09/12 05:31:57;;;;;;;25.10;19.80;;;14.50;99.90;;;;;;5032230;28;20030;-58
2022/09/12 05:34:44;;;;;;;23.13;19.02;;;14.50;99.90;;;;;;5032503;28;20563;-58
2022/09/12 05:37:30;;;;;;;26.08;19.60;;;14.60;99.90;;;;;;5019181;28;20048;-58
2022/09/12 05:40:18;;;;;;;26.90;19.30;;;14.70;99.90;;;;;;5032254;28;20025;-59
2022/09/12 05:43:04;;;;;;;24.92;18.70;;;14.70;99.90;;;;;;5032052;28;20045;-54
2022/09/12 05:45:50;;;;;;;29.63;19.55;;;14.80;99.90;;;;;;5012755;28;20033;-57
2022/09/12 05:48:37;;;;;;;24.83;18.85;;;14.80;99.90;;;;;;5015520;28;20025;-56
2022/09/12 05:51:33;;;;;;;26.85;20.58;;;14.80;99.90;;;;;;5031078;28;20115;-56
2022/09/12 05:54:19;;;;;;;24.67;20.27;;;14.80;99.90;;;;;;5000823;28;20022;-60
2022/09/12 05:57:05;;;;;;;29.42;23.27;;;14.80;99.90;;;;;;5000046;28;20069;-58
2022/09/12 05:59:51;;;;;;;24.65;20.48;;;14.70;99.90;;;;;;5024513;28;20039;-58
2022/09/12 06:02:37;;;;;;;27.88;20.17;;;14.70;99.90;;;;;;5031083;28;20116;-58
2022/09/12 06:05:23;;;;;;;21.67;18.88;;;14.80;99.90;;;;;;5027771;28;20061;-55
2022/09/12 06:08:10;;;;;;;24.45;19.15;;;14.70;99.90;;;;;;5031968;28;20025;-58
2022/09/12 06:11:01;;;;;;;22.20;17.75;;;14.80;99.90;;;;;;5031804;28;20049;-58
2022/09/12 06:13:47;;;;;;;25.63;19.10;;;14.90;99.90;;;;;;5023416;28;20072;-58
2022/09/12 06:16:34;;;;;;;28.70;18.92;;;15.00;99.90;;;;;;5017688;28;20379;-58
2022/09/12 06:19:22;;;;;;;22.55;16.33;;;15.10;99.90;;;;;;5027202;28;20034;-56
2022/09/12 06:22:09;;;;;;;22.83;17.58;;;15.20;99.90;;;;;;5017911;28;20097;-60
2022/09/12 06:24:55;;;;;;;26.48;16.75;;;15.30;99.90;;;;;;5019675;28;20068;-55
2022/09/12 06:27:41;;;;;;;23.13;18.25;;;15.40;99.90;;;;;;5023559;28;20029;-57
2022/09/12 06:30:27;;;;;;;26.15;19.00;;;15.50;99.90;;;;;;5005012;28;20076;-59
2022/09/12 06:33:14;;;;;;;20.40;17.27;;;15.60;99.90;;;;;;5034760;28;20033;-54
2022/09/12 06:36:15;;;;;;;18.90;16.85;;;15.60;99.90;;;;;;5035483;28;20525;-58
2022/09/12 06:39:04;;;;;;;25.98;18.67;;;15.60;99.90;;;;;;5032414;28;20041;-58
2022/09/12 06:41:50;;;;;;;24.73;19.35;;;15.60;99.90;;;;;;5031699;28;20151;-56
2022/09/12 06:44:36;;;;;;;25.33;19.13;;;15.50;99.90;;;;;;5017143;28;20017;-56
2022/09/12 06:47:22;;;;;;;19.92;15.93;;;15.60;99.90;;;;;;5031245;28;20053;-57
2022/09/12 06:50:09;;;;;;;19.05;16.48;;;15.70;99.90;;;;;;5028546;28;20560;-59
2022/09/12 06:52:55;;;;;;;18.73;15.82;;;15.80;99.90;;;;;;5030874;28;20025;-59
2022/09/12 06:55:41;;;;;;;19.75;15.82;;;15.90;99.90;;;;;;5017984;28;20025;-57
2022/09/12 06:58:29;;;;;;;25.20;19.40;;;16.00;99.90;;;;;;5031948;28;20029;-56
2022/09/12 07:01:23;;;;;;;23.70;19.15;;;16.10;99.90;;;;;;5030157;28;20513;-56
2022/09/12 07:04:09;;;;;;;22.00;18.80;;;16.20;99.90;;;;;;5031032;28;20017;-58
2022/09/12 07:06:56;;;;;;;20.88;17.25;;;16.20;99.90;;;;;;5030586;28;20513;-57
2022/09/12 07:09:42;;;;;;;19.08;15.40;;;16.30;99.90;;;;;;5032631;28;20081;-57
2022/09/12 07:12:28;;;;;;;22.55;16.98;;;16.40;99.90;;;;;;5029184;28;20064;-57
2022/09/12 07:15:15;;;;;;;21.85;18.50;;;16.50;99.90;;;;;;5031975;28;20026;-59
2022/09/12 07:18:01;;;;;;;18.60;15.70;;;16.60;99.90;;;;;;5030378;28;20505;-58
2022/09/12 07:20:47;;;;;;;19.65;15.60;;;16.60;99.90;;;;;;5017327;28;20131;-57
2022/09/12 07:23:33;;;;;;;28.13;17.40;;;16.70;99.90;;;;;;5030038;28;20113;-59
2022/09/12 07:26:20;;;;;;;20.00;16.27;;;16.80;99.90;;;;;;5030616;28;20543;-56
2022/09/12 07:29:06;;;;;;;20.33;17.35;;;16.90;99.90;;;;;;5030394;28;20052;-59
2022/09/12 07:31:52;;;;;;;20.02;16.52;;;17.00;99.90;;;;;;5029229;28;20113;-59
2022/09/12 07:34:38;;;;;;;19.20;16.48;;;17.00;99.90;;;;;;5016083;28;20606;-58
2022/09/12 07:37:24;;;;;;;22.02;16.27;;;17.10;99.90;;;;;;5029026;28;20567;-57
2022/09/12 07:40:10;;;;;;;20.02;17.17;;;17.10;99.90;;;;;;5030053;28;20139;-58
2022/09/12 07:42:56;;;;;;;19.55;16.38;;;17.10;99.90;;;;;;5029998;28;20030;-57
2022/09/12 07:45:42;;;;;;;19.48;16.70;;;17.10;99.90;;;;;;5029935;28;20025;-59
2022/09/12 07:48:28;;;;;;;22.02;16.50;;;17.10;99.90;;;;;;5028756;28;20029;-59
2022/09/12 07:51:14;;;;;;;19.42;16.15;;;17.20;99.90;;;;;;5030825;28;20060;-58
2022/09/12 07:54:00;;;;;;;17.67;15.80;;;17.20;99.90;;;;;;5031071;28;20037;-57
2022/09/12 07:56:46;;;;;;;24.42;19.95;;;17.30;99.90;;;;;;5030510;28;20037;-58
2022/09/12 07:59:32;;;;;;;22.48;18.08;;;17.50;99.90;;;;;;5038237;28;20026;-59
2022/09/12 08:02:18;;;;;;;24.42;18.30;;;17.50;99.90;;;;;;5034562;28;20036;-57
2022/09/12 08:05:04;;;;;;;21.25;17.50;;;17.40;99.90;;;;;;5031411;28;20034;-57
2022/09/12 08:07:50;;;;;;;22.70;15.82;;;17.40;99.90;;;;;;5010799;28;20034;-58
2022/09/12 08:10:36;;;;;;;20.88;16.42;;;17.50;99.90;;;;;;5010768;28;20037;-58
2022/09/12 08:13:23;;;;;;;18.92;14.73;;;17.50;99.90;;;;;;5015077;28;20021;-59
2022/09/12 08:16:15;;;;;;;17.67;15.18;;;17.50;99.90;;;;;;5028971;28;20053;-58
2022/09/12 08:19:02;;;;;;;19.83;15.20;;;17.60;99.90;;;;;;5029730;28;20036;-59
2022/09/12 08:21:48;;;;;;;18.17;14.57;;;17.50;99.90;;;;;;5028795;28;20029;-58
2022/09/12 08:24:34;;;;;;;18.60;15.02;;;17.60;99.90;;;;;;5030657;28;20276;-58
2022/09/12 08:27:20;;;;;;;15.32;13.45;;;17.80;99.90;;;;;;5033457;28;20647;-58
2022/09/12 08:30:06;;;;;;;16.80;13.20;;;17.90;99.90;;;;;;5033627;28;20529;-58
2022/09/12 08:32:52;;;;;;;15.50;13.52;;;18.10;99.90;;;;;;5033314;28;20506;-58
2022/09/12 08:35:38;;;;;;;17.98;13.63;;;18.00;99.90;;;;;;5033158;28;20379;-58
2022/09/12 08:38:24;;;;;;;17.13;13.52;;;18.10;99.90;;;;;;5033326;28;20041;-59
2022/09/12 08:41:29;;;;;;;16.90;13.25;;;18.10;99.90;;;;;;5018662;28;20080;-60
2022/09/12 08:44:29;;;;;;;15.20;13.13;;;18.20;99.90;;;;;;5032993;28;20026;-57
2022/09/12 08:47:27;;;;;;;14.82;13.02;;;18.30;99.90;;;;;;5033901;28;20490;-59
2022/09/12 08:50:17;;;;;;;18.35;14.70;;;18.30;99.90;;;;;;5026100;28;20370;-57
2022/09/12 08:53:12;;;;;;;17.42;15.30;;;18.10;99.90;;;;;;5033438;28;20084;-59
2022/09/12 08:55:59;;;;;;;15.80;14.07;;;18.20;99.90;;;;;;5033508;28;20017;-58
2022/09/12 08:58:46;;;;;;;15.55;13.10;;;18.30;99.90;;;;;;5033376;28;20034;-60
2022/09/12 09:01:41;;;;;;;12.75;11.30;;;18.30;99.90;;;;;;5033075;28;20037;-56
2022/09/12 09:04:29;;;;;;;;;;;18.50;99.90;;;;;;5034483;28;20145;-59
2022/09/12 09:07:24;;;;;;;11.07;9.93;;;18.70;99.90;;;;;;5033564;28;19958;-57
2022/09/12 09:10:51;;;;;;;14.45;11.32;;;18.90;99.90;;;;;;5033252;28;20049;-57
2022/09/12 09:16:52;;;;;;;10.55;9.15;;;19.20;99.50;;;;;;5032740;28;20057;-57
2022/09/12 09:19:46;;;;;;;8.82;8.02;;;19.40;98.90;;;;;;5033046;28;20061;-60
2022/09/12 09:22:43;;;;;;;10.80;9.63;;;19.40;98.40;;;;;;5019127;28;20033;-60
2022/09/12 09:25:43;;;;;;;9.30;7.78;;;19.70;97.70;;;;;;5032785;28;20067;-57
2022/09/12 09:28:44;;;;;;;15.93;9.77;;;19.80;97.60;;;;;;5019911;28;20083;-59
2022/09/12 09:31:38;;;;;;;11.57;9.23;;;19.80;97.40;;;;;;5033588;28;20501;-58
2022/09/12 09:34:28;;;;;;;10.93;8.07;;;19.80;97.40;;;;;;5033261;28;20026;-58
2022/09/12 09:37:18;;;;;;;8.30;7.50;;;19.90;96.40;;;;;;5031919;28;20044;-59
2022/09/12 09:40:05;;;;;;;11.43;8.13;;;19.70;96.40;;;;;;5033175;28;20053;-60
2022/09/12 09:43:12;;;;;;;8.35;7.50;;;19.50;96.80;;;;;;5032729;28;20397;-59
2022/09/12 09:45:59;;;;;;;6.43;5.78;;;19.50;96.60;;;;;;5032348;28;20029;-58
2022/09/12 09:48:48;;;;;;;7.38;5.75;;;19.70;95.30;;;;;;5028489;28;20022;-56
2022/09/12 09:51:40;;;;;;;8.15;5.22;;;20.00;95.20;;;;;;5031957;28;20564;-58
2022/09/12 09:54:33;;;;;;;5.25;4.50;;;20.30;94.40;;;;;;5032540;28;20112;-63
2022/09/12 09:57:34;;;;;;;11.05;7.55;;;20.70;94.00;;;;;;5032062;28;20525;-52
2022/09/12 10:00:36;;;;;;;8.00;6.82;;;20.50;94.40;;;;;;5031787;28;20500;-51
2022/09/12 10:03:29;;;;;;;8.75;7.85;;;20.60;94.80;;;;;;5032426;28;20022;-55
2022/09/12 10:06:36;;;;;;;8.80;7.75;;;20.40;95.10;;;;;;5032580;28;20026;-54
2022/09/12 10:09:34;;;;;;;10.30;8.40;;;20.40;95.10;;;;;;5032078;28;20083;-54
2022/09/12 10:12:28;;;;;;;9.35;7.70;;;20.30;95.30;;;;;;5028314;28;20216;-53
2022/09/12 10:15:25;;;;;;;7.88;6.63;;;20.10;95.60;;;;;;5030754;28;20029;-52
2022/09/12 10:18:41;;;;;;;8.77;6.60;;;20.30;94.80;;;;;;5032013;28;20038;-54
2022/09/12 10:21:47;;;;;;;7.05;5.75;;;20.40;94.00;;;;;;5031801;28;20070;-54
2022/09/12 10:24:38;;;;;;;8.00;5.82;;;20.40;93.70;;;;;;5031036;28;20033;-55
2022/09/12 10:27:34;;;;;;;6.30;5.70;;;20.70;93.40;;;;;;5027608;28;20049;-51
2022/09/12 10:30:23;;;;;;;6.88;5.63;;;20.90;93.00;;;;;;5029297;28;20025;-54
2022/09/12 10:33:11;;;;;;;5.70;5.15;;;21.00;93.20;;;;;;5029342;28;20026;-52
2022/09/12 10:35:57;;;;;;;5.85;4.82;;;21.00;92.20;;;;;;5029148;28;20041;-58
2022/09/12 10:38:50;;;;;;;5.20;4.70;;;21.10;91.70;;;;;;5029809;28;20040;-54
2022/09/12 10:41:39;;;;;;;8.98;5.18;;;21.20;91.70;;;;;;5028830;28;20030;-54
2022/09/12 10:44:32;;;;;;;6.15;4.53;;;21.40;91.10;;;;;;5027261;28;20410;-53
2022/09/12 10:47:23;;;;;;;6.10;5.50;;;21.60;91.10;;;;;;5030978;28;20032;-52
2022/09/12 10:50:27;;;;;;;5.53;4.35;;;21.80;90.80;;;;;;5031005;28;20083;-52
2022/09/12 10:53:15;;;;;;;4.40;4.00;;;22.00;90.10;;;;;;5026449;28;20034;-52
2022/09/12 10:56:04;;;;;;;5.35;3.83;;;22.10;89.50;;;;;;5027930;28;20044;-54
2022/09/12 10:59:17;;;;;;;4.47;4.07;;;22.00;89.10;;;;;;5027372;28;20032;-53
2022/09/12 11:02:13;;;;;;;5.63;4.03;;;22.20;88.10;;;;;;5024304;28;20146;-53
2022/09/12 11:05:16;;;;;;;4.82;4.00;;;22.40;87.70;;;;;;5030151;28;20017;-53
2022/09/12 11:08:10;;;;;;;9.00;3.63;;;22.30;87.20;;;;;;5029322;28;20119;-54
2022/09/12 11:11:36;;;;;;;4.70;3.22;;;21.80;87.50;;;;;;5030259;28;20057;-54
2022/09/12 11:14:22;;;;;;;4.45;3.25;;;21.30;88.50;;;;;;5027695;28;20562;-50
2022/09/12 11:17:21;;;;;;;6.72;4.25;;;21.30;88.60;;;;;;5016723;28;20587;-52
2022/09/12 11:20:31;;;;;;;6.20;3.75;;;21.50;89.60;;;;;;5014769;28;20022;-55
2022/09/12 11:23:38;;;;;;;3.88;3.47;;;21.60;88.90;;;;;;5017235;28;20025;-55
2022/09/12 11:27:01;;;;;;;6.00;4.15;;;21.90;87.90;;;;;;5030005;28;20031;-55
2022/09/12 11:30:01;;;;;;;5.18;3.92;;;22.20;87.40;;;;;;5030330;28;20104;-56
2022/09/12 11:33:04;;;;;;;4.70;4.10;;;22.30;87.40;;;;;;5015338;28;20026;-51
2022/09/12 11:35:51;;;;;;;4.78;4.28;;;22.30;86.80;;;;;;5011136;28;20058;-56
2022/09/12 11:39:05;;;;;;;5.20;4.68;;;22.30;87.00;;;;;;5010869;28;20450;-54
2022/09/12 11:41:59;;;;;;;3.75;3.35;;;22.00;87.70;;;;;;5010684;28;20601;-53
2022/09/12 11:44:51;;;;;;;5.43;3.70;;;22.20;88.00;;;;;;5012044;28;20061;-55
2022/09/12 11:47:38;;;;;;;7.22;3.70;;;22.10;86.80;;;;;;5009630;28;20287;-55
2022/09/12 11:50:28;;;;;;;4.13;3.70;;;22.10;87.00;;;;;;5029671;28;20086;-55
2022/09/12 11:53:22;;;;;;;5.13;3.50;;;22.20;87.40;;;;;;5031112;28;20029;-54
2022/09/12 11:56:15;;;;;;;6.38;3.60;;;22.40;87.20;;;;;;5039749;28;20079;-53
2022/09/12 11:59:15;;;;;;;5.47;3.80;;;22.40;87.00;;;;;;5031341;28;20052;-56
2022/09/12 12:02:09;;;;;;;3.67;3.33;;;22.50;87.00;;;;;;5012305;28;20026;-52
2022/09/12 12:05:21;;;;;;;8.55;3.85;;;22.40;87.00;;;;;;5011048;28;20019;-49
2022/09/12 12:08:08;;;;;;;4.20;3.28;;;22.60;86.50;;;;;;5011600;28;20525;-55
2022/09/12 12:11:02;;;;;;;7.97;4.13;;;22.70;86.20;;;;;;5010785;28;20037;-50
2022/09/12 12:13:55;;;;;;;4.20;3.70;;;22.80;85.30;;;;;;5018693;28;20037;-53
2022/09/12 12:16:42;;;;;;;30.60;6.93;;;23.00;84.10;;;;;;5011833;28;20081;-55
2022/09/12 12:19:34;;;;;;;6.75;4.35;;;22.90;84.50;;;;;;5030006;28;20033;-54
2022/09/12 12:22:23;;;;;;;3.85;3.35;;;23.10;84.30;;;;;;5029480;28;20049;-52
2022/09/12 12:25:12;;;;;;;5.30;3.65;;;23.00;83.90;;;;;;5031133;28;20025;-55
2022/09/12 12:28:05;;;;;;;4.40;3.45;;;23.00;83.70;;;;;;5030169;28;20029;-56
2022/09/12 12:30:58;;;;;;;4.40;3.75;;;22.90;83.60;;;;;;5030509;28;20618;-53
2022/09/12 12:33:44;;;;;;;5.95;3.83;;;23.20;83.80;;;;;;5031069;28;20541;-49
2022/09/12 12:36:34;;;;;;;4.00;3.70;;;23.40;81.50;;;;;;5033132;28;20052;-53
2022/09/12 12:39:32;;;;;;;3.80;3.40;;;23.40;80.80;;;;;;5030526;28;20029;-50
2022/09/12 12:42:33;;;;;;;5.10;3.70;;;23.00;82.20;;;;;;5029277;28;20022;-49
2022/09/12 12:45:40;;;;;;;6.72;3.45;;;22.80;82.90;;;;;;5029768;28;20030;-55
2022/09/12 12:48:30;;;;;;;5.35;4.35;;;23.10;83.10;;;;;;5024212;28;20044;-59
2022/09/12 12:51:37;;;;;;;8.00;3.70;;;23.30;82.00;;;;;;5029878;28;20029;-52
2022/09/12 12:54:49;;;;;;;4.60;3.22;;;23.20;82.20;;;;;;5008996;28;20041;-48
2022/09/12 12:57:50;;;;;;;5.32;4.13;;;23.40;80.90;;;;;;5010562;28;20034;-48
2022/09/12 13:00:39;;;;;;;6.15;3.65;;;23.50;81.10;;;;;;5019026;28;20033;-56
2022/09/12 13:03:30;;;;;;;4.60;3.05;;;23.60;80.30;;;;;;5029691;28;20405;-49
2022/09/12 13:06:36;;;;;;;10.68;7.75;;;23.50;80.10;;;;;;5029695;28;20026;-58
2022/09/12 13:09:25;;;;;;;7.78;4.13;;;23.50;80.00;;;;;;5029240;28;20100;-53
2022/09/12 13:12:19;;;;;;;5.05;3.35;;;23.30;80.20;;;;;;5030744;28;20025;-52
2022/09/12 13:15:28;;;;;;;7.10;3.50;;;23.40;80.80;;;;;;5032655;28;20044;-53
2022/09/12 13:18:22;;;;;;;10.98;4.13;;;23.70;80.50;;;;;;5029478;28;20083;-52
2022/09/12 13:21:16;;;;;;;5.78;3.65;;;23.70;79.30;;;;;;5032943;28;20041;-54
2022/09/12 13:24:14;;;;;;;3.70;3.20;;;23.70;79.60;;;;;;5052283;28;20544;-53
2022/09/12 13:27:01;;;;;;;4.88;3.58;;;23.60;80.50;;;;;;5053654;28;20036;-55
2022/09/12 13:29:47;;;;;;;4.85;3.78;;;23.80;80.60;;;;;;5036343;28;20037;-57
2022/09/12 13:32:34;;;;;;;3.95;3.33;;;23.90;80.00;;;;;;5032297;28;20033;-53
2022/09/12 13:35:58;;;;;;;6.35;5.70;;;24.00;79.10;;;;;;5031470;28;20036;-54
2022/09/12 13:38:49;;;;;;;10.32;3.25;;;24.00;78.90;;;;;;5028659;28;20068;-57
2022/09/12 13:42:12;;;;;;;3.85;3.33;;;23.70;77.70;;;;;;5031460;28;20025;-57
2022/09/12 13:45:38;;;;;;;6.63;3.90;;;23.60;78.50;;;;;;5030922;28;20498;-53
2022/09/12 13:48:24;;;;;;;4.50;3.42;;;23.70;78.60;;;;;;5016393;28;20127;-53
2022/09/12 13:51:29;;;;;;;5.68;3.15;;;23.80;78.70;;;;;;5031469;28;20045;-55
2022/09/12 13:54:17;;;;;;;12.07;4.70;;;24.00;78.20;;;;;;5030611;28;20033;-52
2022/09/12 13:57:04;;;;;;;10.55;3.50;;;24.20;79.10;;;;;;5030652;28;20033;-57
2022/09/12 13:59:56;;;;;;;5.20;4.32;;;24.00;79.50;;;;;;5014871;28;20116;-56
2022/09/12 14:02:42;;;;;;;6.93;4.10;;;24.00;77.40;;;;;;5032400;28;20066;-54
2022/09/12 14:05:28;;;;;;;4.30;3.55;;;23.80;78.30;;;;;;5018842;28;20025;-56
2022/09/12 14:08:14;;;;;;;5.45;3.78;;;23.80;78.80;;;;;;5043116;28;20025;-54
2022/09/12 14:11:07;;;;;;;5.97;4.00;;;23.60;80.00;;;;;;5051763;28;20087;-55
2022/09/12 14:13:54;;;;;;;4.90;3.00;;;23.80;80.30;;;;;;5044128;28;20026;-60
2022/09/12 14:16:40;;;;;;;5.15;3.20;;;23.90;80.20;;;;;;5031164;28;20133;-55
2022/09/12 14:19:28;;;;;;;7.43;4.32;;;23.90;80.30;;;;;;5031929;28;20048;-56
2022/09/12 14:22:17;;;;;;;4.43;3.58;;;24.00;79.90;;;;;;5023037;28;20530;-59
2022/09/12 14:25:04;;;;;;;4.38;3.58;;;23.80;79.00;;;;;;5011720;28;20022;-49
2022/09/12 14:27:52;;;;;;;8.38;7.30;;;23.70;78.90;;;;;;5012370;28;20026;-56
2022/09/12 14:30:38;;;;;;;5.97;4.72;;;23.80;79.10;;;;;;5012820;28;20034;-53
2022/09/12 14:33:25;;;;;;;7.93;3.58;;;23.80;78.40;;;;;;5012147;28;20107;-54
2022/09/12 14:36:28;;;;;;;5.22;3.83;;;23.70;78.60;;;;;;5022817;28;20417;-58
2022/09/12 14:39:38;;;;;;;5.38;3.85;;;23.70;78.80;;;;;;5051628;28;20043;-50
2022/09/12 14:42:29;;;;;;;6.13;3.90;;;23.90;79.30;;;;;;5050748;28;20037;-56
2022/09/12 14:45:30;;;;;;;4.35;3.33;;;24.00;78.70;;;;;;5037865;28;20029;-57